EW5919 Weather Reports


time (UTC)temp
F
wind
direction
speed
knots
gust
knots
rain 1hr
in
rain 24hr
in
rain mn
in
humidity
%
barometer
mb
20211017143056 53 334 0.0 5.2 0.00 0.00 0.00 72 1021.8
20211017141513 52 360 0.9 8.7 0.00 0.00 0.00 76 1021.8
20211017140025 50 360 0.9 10.4 0.00 0.00 0.00 80 1021.8
20211017131523 44 42 0.0 0.9 0.00 0.00 0.00 94 1021.4
20211017130118 43 344 0.0 0.0 0.00 0.00 0.00 94 1021.2
20211017124547 43 344 0.0 0.0 0.00 0.00 0.00 93 1021.0
20211017123021 42 344 0.0 0.0 0.00 0.00 0.00 92 1020.9
20211017121713 42 344 0.0 0.0 0.00 0.00 0.00 91 1020.9
20211017120026 43 344 0.0 0.0 0.00 0.00 0.00 91 1020.7
20211017113140 43 344 0.0 0.0 0.00 0.00 0.00 90 1020.4
20211017113116 43 344 0.0 0.0 0.00 0.00 0.00 90 1020.5
20211017110100 44 344 0.0 0.0 0.00 0.00 0.00 89 1020.2
20211017104606 44 344 0.0 0.0 0.00 0.00 0.00 87 1020.1
20211017101520 45 344 0.0 0.0 0.00 0.00 0.00 87 1019.8
20211017084603 46 347 0.0 2.6 0.00 0.00 0.00 84 1019.2
20211017074506 46 340 0.0 0.9 0.00 0.00 0.00 86 1019.2
20211017064612 47 340 0.0 0.9 0.00 0.00 0.00 82 1019.1
20211017063057 47 346 0.0 0.9 0.00 0.00 0.00 82 1019.1
20211017061634 48 336 0.0 0.0 0.00 0.00 0.00 81 1018.9
20211017054556 48 336 0.0 0.0 0.00 0.00 0.00 80 1018.9
20211017051641 48 5 0.0 2.6 0.00 0.00 0.00 81 1018.8
20211017051548 48 355 0.0 1.7 0.00 0.00 0.00 81 1018.8
20211017044634 47 5 0.0 1.7 0.00 0.00 0.00 85 1019.0
20211017043117 47 9 0.0 0.9 0.00 0.00 0.00 87 1019.0
20211017040209 48 355 0.0 0.0 0.00 0.00 0.00 85 1019.1
20211017033122 49 355 0.0 0.0 0.00 0.00 0.00 82 1018.8
20211017031620 50 355 0.0 0.0 0.00 0.00 0.00 80 1018.9
20211017030116 50 355 0.0 0.0 0.00 0.00 0.00 80 1019.0
20211017030016 50 355 0.0 0.0 0.00 0.00 0.00 80 1018.9
20211017024513 51 355 0.0 0.9 0.00 0.00 0.00 78 1018.9
20211017021623 51 339 0.0 1.7 0.00 0.00 0.00 78 1018.6
20211017014502 53 325 0.0 0.0 0.00 0.00 0.00 76 1018.3
20211017011519 54 340 0.0 0.0 0.00 0.00 0.00 74 1018.0
20211017004546 55 355 0.0 1.7 0.00 0.00 0.00 71 1017.7
20211017003001 56 15 0.0 0.9 0.00 0.00 0.00 68 1017.5
20211017001654 57 17 0.0 0.0 0.00 0.00 0.00 66 1017.5
20211017000013 58 355 0.0 0.9 0.00 0.00 0.00 61 1017.2
20211016234638 58 334 0.0 1.7 0.00 0.00 0.00 60 1017.0
20211016233030 59 341 0.0 2.6 0.00 0.00 0.00 58 1016.8
20211016230010 61 325 0.0 0.9 0.00 0.00 0.00 58 1016.2
20211016224646 62 36 0.0 3.5 0.00 0.00 0.00 57 1016.0
20211016224514 62 338 0.0 3.5 0.00 0.00 0.00 57 1016.0
20211016223045 64 332 0.0 2.6 0.00 0.00 0.00 55 1015.8
20211016221539 65 311 0.9 7.0 0.00 0.00 0.00 53 1015.7
20211016220103 66 328 0.9 5.2 0.00 0.00 0.00 51 1015.4
20211016220020 66 319 0.9 5.2 0.00 0.00 0.00 53 1015.4
20211016204604 69 26 0.9 7.8 0.00 0.00 0.00 51 1014.9
20211016201559 69 332 0.9 9.6 0.00 0.00 0.00 54 1014.7
20211016191608 69 333 1.7 8.7 0.00 0.00 0.00 57 1014.5
20211016190039 69 309 1.7 12.2 0.00 0.00 0.00 61 1014.4
20211016184500 69 312 1.7 8.7 0.00 0.00 0.00 59 1014.5
20211016181620 68 308 4.3 13.9 0.00 0.00 0.00 62 1014.5
20211016180035 67 319 1.7 8.7 0.00 0.00 0.00 65 1014.6
20211016173115 67 321 0.9 5.2 0.00 0.00 0.00 68 1014.8
20211016164513 65 355 0.9 7.0 0.00 0.00 0.00 76 1015.1
20211016154856 63 10 0.9 13.0 0.00 0.00 0.00 84 1014.9
20211016153109 63 313 0.9 14.8 0.00 0.00 0.00 87 1014.8